Time;durP1;ratioP1;P1;durP2;ratioP2;P2;SDS_P1;SDS_P2;PMS_P1;PMS_P2;Temp;Humidity;BMP_temperature;BMP_pressure;BME280_temperature;BME280_humidity;BME280_pressure;Samples;Min_cycle;Max_cycle;Signal;HPM_P1;HPM_P2
2021/11/15 03:32:08;;;;;;;7.03;4.63;;;14.90;80.00;;;;;;6141525;22;95757;-65
2021/11/15 03:34:44;;;;;;;6.32;4.13;;;15.00;79.70;;;;;;6174052;22;96084;-67
2021/11/15 03:37:14;;;;;;;6.85;4.68;;;14.90;79.60;;;;;;6176899;22;96077;-67
2021/11/15 03:39:44;;;;;;;6.68;4.38;;;15.00;79.70;;;;;;6209196;22;96289;-68
2021/11/15 03:42:16;;;;;;;5.50;3.85;;;15.00;79.50;;;;;;6207998;22;95694;-67
2021/11/15 03:44:52;;;;;;;8.52;4.32;;;15.00;79.40;;;;;;6080403;23;95693;-67
2021/11/15 03:47:26;;;;;;;8.15;5.13;;;15.00;79.40;;;;;;5980112;23;95919;-66
2021/11/15 03:49:57;;;;;;;7.82;4.10;;;15.10;79.30;;;;;;5698918;23;101068;-65
2021/11/15 03:52:27;;;;;;;6.85;3.70;;;15.10;79.20;;;;;;5398178;25;95863;-65
2021/11/15 03:55:16;;;;;;;6.65;3.80;;;15.20;79.10;;;;;;5089021;27;95719;-66
2021/11/15 03:57:50;;;;;;;4.57;3.60;;;15.20;79.20;;;;;;4931197;27;3916075;-65
2021/11/15 04:00:47;;;;;;;5.45;3.08;;;15.30;79.30;;;;;;5012521;28;96355;-69
2021/11/15 04:03:31;;;;;;;3.72;2.38;;;15.40;79.40;;;;;;5015167;28;96532;-65
2021/11/15 04:06:23;;;;;;;5.07;3.10;;;15.50;79.60;;;;;;5011121;28;95936;-66
2021/11/15 04:09:04;;;;;;;4.80;3.05;;;15.70;79.50;;;;;;5011817;28;95827;-66
2021/11/15 04:11:43;;;;;;;4.63;2.60;;;15.70;79.40;;;;;;5023253;28;95420;-67
2021/11/15 04:14:17;;;;;;;6.47;3.10;;;15.80;79.40;;;;;;5019616;27;96035;-66
2021/11/15 04:17:13;;;;;;;6.28;3.60;;;15.90;79.90;;;;;;5019181;27;96142;-67
2021/11/15 04:19:57;;;;;;;4.93;2.67;;;15.90;79.10;;;;;;5010563;28;95711;-66
2021/11/15 04:22:35;;;;;;;4.10;2.70;;;16.00;78.90;;;;;;5015361;28;95870;-70
2021/11/15 04:25:14;;;;;;;9.95;5.10;;;16.10;79.00;;;;;;5021658;28;96142;-72
2021/11/15 04:27:55;;;;;;;12.50;8.43;;;16.10;78.70;;;;;;5003899;28;95385;-67
2021/11/15 04:30:56;;;;;;;7.28;5.55;;;16.20;78.70;;;;;;5013257;27;95174;-70
2021/11/15 04:33:32;;;;;;;8.70;6.05;;;16.20;78.50;;;;;;5019898;28;95394;-69
2021/11/15 04:36:06;;;;;;;11.05;6.68;;;16.40;78.50;;;;;;5008882;27;96498;-69
2021/11/15 04:38:39;;;;;;;8.98;5.90;;;16.40;78.40;;;;;;5010669;27;95545;-65
2021/11/15 04:41:13;;;;;;;9.90;5.28;;;16.50;78.00;;;;;;5013523;27;95230;-68
2021/11/15 04:43:48;;;;;;;9.00;4.80;;;16.60;77.80;;;;;;5016523;28;95283;-65
2021/11/15 04:46:21;;;;;;;8.48;5.43;;;16.70;77.50;;;;;;5021825;27;96431;-65
2021/11/15 04:48:56;;;;;;;6.03;4.50;;;16.70;77.30;;;;;;5026945;27;95929;-69
2021/11/15 04:51:27;;;;;;;8.27;5.22;;;16.80;77.00;;;;;;5010203;27;97445;-64
2021/11/15 04:54:00;;;;;;;10.30;6.28;;;16.90;76.90;;;;;;5023748;27;96049;-66
2021/11/15 04:56:35;;;;;;;8.30;4.95;;;16.90;76.70;;;;;;5014258;28;95884;-67
2021/11/15 04:59:08;;;;;;;6.93;4.85;;;16.90;76.40;;;;;;5008758;28;95813;-65
2021/11/15 05:01:43;;;;;;;7.63;3.80;;;17.00;76.30;;;;;;4994779;28;95633;-65
2021/11/15 05:04:14;;;;;;;8.30;4.57;;;17.00;76.00;;;;;;4989004;28;95676;-67
2021/11/15 05:06:49;;;;;;;5.30;4.00;;;17.10;75.90;;;;;;4978289;28;96181;-65
2021/11/15 05:09:23;;;;;;;5.13;3.53;;;17.10;75.60;;;;;;4976493;28;95765;-68
2021/11/15 05:11:54;;;;;;;6.20;3.90;;;17.10;75.30;;;;;;4980284;28;95337;-69
2021/11/15 05:14:28;;;;;;;5.10;3.25;;;17.20;75.10;;;;;;4978509;28;95981;-68
2021/11/15 05:17:00;;;;;;;6.38;3.58;;;17.20;74.90;;;;;;4977835;28;97149;-69
2021/11/15 05:19:36;;;;;;;6.70;3.30;;;17.20;74.60;;;;;;4981196;28;96056;-69
2021/11/15 05:22:11;;;;;;;6.03;4.68;;;17.30;74.50;;;;;;4982627;28;95853;-67
2021/11/15 05:24:42;;;;;;;7.90;4.40;;;17.30;74.30;;;;;;4982462;28;95754;-68
2021/11/15 05:27:13;;;;;;;7.40;3.80;;;17.30;74.10;;;;;;4978017;28;95378;-68
2021/11/15 05:29:47;;;;;;;5.82;3.42;;;17.40;74.10;;;;;;4978524;28;95418;-65
2021/11/15 05:32:24;;;;;;;5.20;3.33;;;17.40;73.70;;;;;;4990565;28;95905;-68
2021/11/15 05:34:58;;;;;;;5.20;2.90;;;17.50;73.50;;;;;;4978944;28;96063;-68
2021/11/15 05:37:31;;;;;;;4.38;3.00;;;17.50;73.20;;;;;;4980960;28;96315;-68
2021/11/15 05:40:06;;;;;;;5.82;3.30;;;17.50;72.80;;;;;;4977476;28;95911;-66
2021/11/15 05:42:39;;;;;;;5.10;3.78;;;17.50;72.70;;;;;;4980566;28;95262;-69
2021/11/15 05:45:13;;;;;;;6.22;3.13;;;17.50;72.60;;;;;;4974780;28;95368;-68
2021/11/15 05:47:44;;;;;;;7.18;3.28;;;17.50;72.40;;;;;;4986811;28;96091;-68
2021/11/15 05:50:19;;;;;;;3.70;2.72;;;17.60;72.20;;;;;;4990322;28;95600;-68
2021/11/15 05:52:54;;;;;;;5.18;2.28;;;17.60;72.10;;;;;;4979527;28;95538;-68
2021/11/15 05:55:27;;;;;;;3.25;2.53;;;17.60;72.00;;;;;;4996254;28;95377;-66
2021/11/15 05:58:00;;;;;;;2.95;2.20;;;17.60;71.70;;;;;;4978633;28;96399;-66
2021/11/15 06:00:39;;;;;;;3.70;2.40;;;17.60;71.60;;;;;;4977883;28;96341;-69
2021/11/15 06:03:11;;;;;;;5.47;2.85;;;17.70;71.50;;;;;;4983806;28;95976;-68
2021/11/15 06:05:43;;;;;;;3.78;2.28;;;17.70;71.30;;;;;;4987622;28;96448;-69
2021/11/15 06:08:16;;;;;;;3.25;2.65;;;17.60;71.20;;;;;;4983518;28;96791;-68
2021/11/15 06:10:53;;;;;;;6.38;2.63;;;17.60;71.10;;;;;;4981154;28;95810;-67
2021/11/15 06:13:24;;;;;;;3.88;2.30;;;17.70;71.00;;;;;;4977420;28;96331;-68
2021/11/15 06:15:58;;;;;;;3.20;1.77;;;17.70;70.90;;;;;;4958228;28;96311;-66
2021/11/15 06:18:34;;;;;;;5.07;2.80;;;17.70;70.60;;;;;;4972127;28;96646;-65
2021/11/15 06:21:09;;;;;;;5.00;2.28;;;17.70;70.60;;;;;;4978026;28;95856;-68
2021/11/15 06:23:42;;;;;;;2.83;2.45;;;17.70;70.70;;;;;;4998509;28;95811;-68
2021/11/15 06:26:14;;;;;;;3.22;1.75;;;17.70;70.70;;;;;;4980834;28;95791;-66
2021/11/15 06:28:48;;;;;;;;;;;17.80;70.60;;;;;;4984335;28;98946;-65
2021/11/15 06:31:23;;;;;;;4.22;2.42;;;17.70;70.20;;;;;;4979802;28;96161;-67
2021/11/15 06:33:58;;;;;;;4.10;2.33;;;17.70;70.10;;;;;;4977276;28;95381;-68
2021/11/15 06:36:33;;;;;;;2.85;1.63;;;17.80;69.80;;;;;;4981956;28;96231;-68
2021/11/15 06:39:04;;;;;;;8.98;4.07;;;17.80;69.60;;;;;;4989700;28;96443;-69
2021/11/15 06:41:38;;;;;;;8.52;6.50;;;17.80;69.60;;;;;;4989762;28;95989;-68
2021/11/15 06:44:11;;;;;;;6.47;5.30;;;17.80;69.50;;;;;;4983062;28;95813;-68
2021/11/15 06:46:42;;;;;;;4.90;3.83;;;17.80;69.60;;;;;;4984487;28;95649;-69
2021/11/15 06:49:14;;;;;;;4.40;3.13;;;17.80;69.50;;;;;;4978625;28;96219;-68
2021/11/15 06:51:46;;;;;;;4.93;3.70;;;17.90;69.50;;;;;;4968342;28;96491;-70
2021/11/15 06:54:17;;;;;;;4.50;3.42;;;17.90;69.40;;;;;;4977331;28;95565;-68
2021/11/15 06:56:49;;;;;;;9.13;3.47;;;17.90;69.30;;;;;;4981667;28;95728;-65
2021/11/15 06:59:21;;;;;;;4.47;3.10;;;18.00;69.20;;;;;;4973464;28;98079;-68
2021/11/15 07:01:59;;;;;;;5.13;3.40;;;17.90;69.10;;;;;;4976648;28;97278;-68
2021/11/15 07:04:39;;;;;;;9.30;3.60;;;17.90;69.20;;;;;;4977599;28;95941;-68
2021/11/15 07:07:23;;;;;;;4.30;2.85;;;17.90;69.30;;;;;;4948313;28;96086;-67
2021/11/15 07:10:08;;;;;;;6.93;3.10;;;17.90;69.30;;;;;;4952621;28;96284;-68
2021/11/15 07:12:40;;;;;;;4.40;3.58;;;17.80;69.30;;;;;;4961839;28;95805;-69
2021/11/15 07:15:14;;;;;;;3.55;3.00;;;17.80;69.40;;;;;;4985709;28;95596;-68
2021/11/15 07:18:18;;;;;;;4.72;2.90;;;17.80;69.40;;;;;;4978224;28;95454;-69
2021/11/15 07:20:50;;;;;;;4.43;3.08;;;17.80;69.50;;;;;;4985291;28;96442;-70
2021/11/15 07:23:25;;;;;;;5.25;3.10;;;17.80;69.50;;;;;;4978060;28;95806;-69
2021/11/15 07:25:56;;;;;;;4.53;3.38;;;17.70;69.70;;;;;;4966265;28;96504;-68
2021/11/15 07:28:27;;;;;;;;;;;17.70;69.70;;;;;;4983819;28;95762;-68
2021/11/15 07:30:58;;;;;;;4.93;2.63;;;17.70;70.00;;;;;;4988260;28;95994;-69
2021/11/15 07:33:31;;;;;;;5.00;2.95;;;17.80;70.00;;;;;;4984560;28;95651;-69
2021/11/15 07:36:01;;;;;;;;;;;17.80;70.00;;;;;;4975347;28;95847;-69
2021/11/15 07:41:47;;;;;;;4.75;3.22;;;18.00;70.00;;;;;;4919744;28;98308;-68
2021/11/15 07:44:19;;;;;;;4.60;2.60;;;18.00;70.00;;;;;;4908929;28;95807;-70
2021/11/15 07:46:51;;;;;;;7.20;2.80;;;18.00;69.90;;;;;;4925349;28;95934;-72
2021/11/15 07:49:22;;;;;;;6.65;2.35;;;18.10;69.90;;;;;;4930538;28;95438;-71
2021/11/15 07:51:52;;;;;;;;;;;18.10;69.90;;;;;;4929564;28;96642;-70
2021/11/15 07:54:23;;;;;;;5.35;2.60;;;18.10;69.90;;;;;;4913766;28;95374;-70
2021/11/15 07:57:00;;;;;;;;;;;18.20;69.90;;;;;;4928595;28;95700;-69
2021/11/15 08:00:00;;;;;;;3.65;2.40;;;18.20;69.90;;;;;;4909113;28;95468;-71
2021/11/15 08:02:41;;;;;;;3.90;2.22;;;18.20;69.90;;;;;;4923759;28;96515;-67
2021/11/15 08:05:19;;;;;;;7.75;3.65;;;18.20;70.00;;;;;;4926685;28;95809;-69
2021/11/15 08:07:52;;;;;;;4.35;3.08;;;18.20;69.90;;;;;;4912678;28;95494;-72
2021/11/15 08:13:31;;;;;;;8.55;4.38;;;18.20;69.90;;;;;;4918768;28;98260;-73
2021/11/15 08:16:06;;;;;;;4.63;3.08;;;18.20;70.00;;;;;;4922373;28;96093;-71
2021/11/15 08:18:41;;;;;;;6.07;3.15;;;18.20;70.00;;;;;;4927539;28;95535;-73
2021/11/15 08:21:14;;;;;;;6.00;3.00;;;18.20;70.00;;;;;;4983107;28;95683;-72
2021/11/15 08:23:51;;;;;;;4.90;3.20;;;18.20;70.00;;;;;;4983449;28;96097;-71
2021/11/15 08:26:47;;;;;;;5.90;3.15;;;18.20;69.90;;;;;;4985193;28;95950;-71
2021/11/15 08:29:23;;;;;;;3.88;2.72;;;18.20;70.00;;;;;;4984251;28;96068;-70
2021/11/15 08:32:00;;;;;;;5.82;3.20;;;18.20;69.90;;;;;;4980946;28;97664;-69
2021/11/15 08:34:33;;;;;;;6.35;3.30;;;18.20;69.90;;;;;;4976495;28;95662;-69
2021/11/15 08:37:13;;;;;;;7.00;3.17;;;18.20;67.40;;;;;;4975974;28;95993;-71
2021/11/15 08:47:00;;;;;;;5.25;2.65;;;18.20;69.80;;;;;;4981909;28;96108;-71
2021/11/15 08:49:35;;;;;;;6.72;3.30;;;18.20;69.80;;;;;;4968385;28;96837;-68
2021/11/15 08:52:06;;;;;;;4.25;3.05;;;18.10;69.80;;;;;;4988617;28;96068;-71
2021/11/15 08:54:37;;;;;;;4.18;3.50;;;18.10;69.80;;;;;;4991589;28;96502;-72
2021/11/15 08:57:08;;;;;;;6.23;3.33;;;18.10;69.90;;;;;;4991389;28;95519;-68
2021/11/15 08:59:45;;;;;;;4.90;3.10;;;18.10;69.90;;;;;;5002911;28;96431;-72
2021/11/15 09:02:16;;;;;;;5.85;3.70;;;18.10;70.00;;;;;;5008028;28;95716;-68
2021/11/15 09:04:47;;;;;;;6.00;3.28;;;18.10;70.00;;;;;;4984847;28;96771;-68
2021/11/15 09:07:18;;;;;;;5.60;3.28;;;18.10;69.80;;;;;;4987072;28;97214;-72
2021/11/15 09:09:48;;;;;;;5.20;3.23;;;18.10;69.90;;;;;;5008893;28;96721;-71
2021/11/15 09:12:19;;;;;;;6.00;2.90;;;18.10;69.70;;;;;;5007061;28;96205;-71
2021/11/15 09:14:49;;;;;;;6.20;3.35;;;18.10;69.70;;;;;;4987976;28;95994;-72
2021/11/15 09:17:20;;;;;;;4.45;3.10;;;18.10;69.70;;;;;;5004796;28;97601;-67
2021/11/15 09:19:54;;;;;;;5.15;2.78;;;18.00;69.70;;;;;;5004279;28;95886;-71
2021/11/15 09:22:26;;;;;;;5.03;3.40;;;18.00;69.80;;;;;;4968339;28;96108;-68
2021/11/15 09:24:58;;;;;;;5.00;3.35;;;18.10;69.90;;;;;;4991252;28;96490;-68
2021/11/15 09:27:30;;;;;;;4.07;3.30;;;18.00;69.70;;;;;;5004303;28;96130;-67
2021/11/15 09:30:03;;;;;;;6.63;3.25;;;18.00;69.70;;;;;;5003370;28;95776;-71
2021/11/15 09:32:36;;;;;;;6.22;2.90;;;18.00;69.70;;;;;;4980220;28;95627;-69
2021/11/15 09:35:08;;;;;;;4.57;3.17;;;18.00;69.70;;;;;;4986121;28;95934;-67
2021/11/15 09:37:39;;;;;;;8.80;3.28;;;18.00;69.60;;;;;;4992425;28;96078;-67
2021/11/15 09:40:12;;;;;;;5.45;3.42;;;18.00;69.60;;;;;;4986579;28;95791;-67
2021/11/15 09:42:44;;;;;;;5.45;2.90;;;18.00;69.60;;;;;;5001195;28;96090;-67
2021/11/15 09:45:15;;;;;;;4.07;2.92;;;17.90;69.60;;;;;;4999658;28;95588;-68
2021/11/15 09:47:46;;;;;;;6.50;3.47;;;17.90;69.50;;;;;;4999882;28;96135;-73
2021/11/15 09:50:17;;;;;;;5.13;3.20;;;17.90;69.50;;;;;;5003736;28;95855;-67
2021/11/15 09:52:49;;;;;;;5.50;3.25;;;17.90;69.50;;;;;;4996123;28;95562;-68
2021/11/15 09:55:20;;;;;;;;;;;17.90;69.60;;;;;;5000063;28;95889;-68
2021/11/15 09:57:53;;;;;;;3.67;2.45;;;17.80;69.50;;;;;;5010867;28;96101;-68
2021/11/15 10:00:26;;;;;;;5.82;3.00;;;17.80;69.50;;;;;;4983423;28;97990;-68
2021/11/15 10:02:57;;;;;;;7.00;3.13;;;17.80;69.60;;;;;;5000419;28;95733;-68
2021/11/15 10:05:28;;;;;;;4.13;2.43;;;17.80;69.60;;;;;;4981494;28;98652;-68
2021/11/15 10:08:04;;;;;;;6.38;2.80;;;17.70;69.50;;;;;;4997543;28;96401;-68
2021/11/15 10:10:41;;;;;;;6.20;2.88;;;17.70;69.50;;;;;;4996033;28;96161;-68
2021/11/15 10:13:20;;;;;;;8.75;3.38;;;17.70;69.60;;;;;;5000903;28;95348;-68
2021/11/15 10:15:58;;;;;;;4.78;2.55;;;17.70;69.60;;;;;;5009752;28;97005;-68
2021/11/15 10:18:55;;;;;;;3.55;2.33;;;17.70;69.70;;;;;;4992233;28;96047;-68
2021/11/15 10:21:38;;;;;;;3.78;2.83;;;17.60;69.60;;;;;;4991597;28;96532;-68
2021/11/15 10:24:15;;;;;;;4.20;2.70;;;17.70;69.70;;;;;;4985165;28;95950;-68
2021/11/15 10:26:55;;;;;;;3.85;2.75;;;17.60;69.60;;;;;;4977097;28;95413;-67
2021/11/15 10:29:35;;;;;;;3.65;2.33;;;17.60;69.70;;;;;;4978252;28;96046;-68
2021/11/15 10:32:29;;;;;;;4.63;2.40;;;17.60;69.70;;;;;;5001664;28;95790;-68
2021/11/15 10:35:02;;;;;;;4.50;2.50;;;17.60;69.70;;;;;;4994632;28;96075;-72
2021/11/15 10:37:37;;;;;;;2.72;2.28;;;17.60;69.70;;;;;;4997533;28;95835;-67
2021/11/15 10:40:26;;;;;;;4.70;2.58;;;17.50;69.70;;;;;;4994223;28;96107;-67
2021/11/15 10:42:57;;;;;;;4.85;2.63;;;17.50;69.80;;;;;;4993471;28;95775;-67
2021/11/15 10:45:30;;;;;;;3.80;2.30;;;17.50;69.70;;;;;;4991880;28;95516;-67
2021/11/15 10:48:03;;;;;;;3.65;2.63;;;17.50;69.80;;;;;;5003607;28;96130;-67
2021/11/15 10:50:55;;;;;;;4.35;2.55;;;17.50;69.80;;;;;;5003271;28;97102;-73
2021/11/15 10:53:44;;;;;;;3.83;1.92;;;17.50;69.90;;;;;;4993833;28;95596;-66
2021/11/15 10:56:20;;;;;;;2.53;1.75;;;17.40;69.80;;;;;;4989534;28;95974;-73
2021/11/15 10:58:50;;;;;;;3.35;2.53;;;17.40;69.80;;;;;;5002360;28;97179;-68
2021/11/15 11:01:28;;;;;;;3.43;2.50;;;17.40;67.20;;;;;;4990691;28;96088;-67
2021/11/15 11:04:11;;;;;;;3.20;2.35;;;17.40;69.80;;;;;;4982085;28;97443;-66
2021/11/15 11:07:07;;;;;;;3.75;2.00;;;17.40;69.90;;;;;;4997878;28;95652;-67
2021/11/15 11:09:40;;;;;;;3.80;2.25;;;17.40;69.90;;;;;;4986017;28;95386;-67
2021/11/15 11:12:15;;;;;;;4.22;2.60;;;17.40;69.90;;;;;;4978501;28;97314;-73
2021/11/15 11:14:45;;;;;;;3.95;2.63;;;17.30;69.90;;;;;;4984965;28;96096;-67
2021/11/15 11:17:16;;;;;;;4.35;2.50;;;17.30;69.90;;;;;;4990981;28;95640;-67
2021/11/15 11:20:11;;;;;;;4.18;2.38;;;17.30;70.00;;;;;;4983038;28;95791;-67
2021/11/15 11:23:15;;;;;;;4.72;2.47;;;17.30;70.00;;;;;;5007451;28;96104;-68
2021/11/15 11:25:45;;;;;;;2.75;2.30;;;17.30;70.30;;;;;;4981000;28;97340;-66
2021/11/15 11:28:27;;;;;;;3.10;2.00;;;17.20;70.00;;;;;;4985955;28;95753;-73
2021/11/15 11:31:09;;;;;;;2.03;1.83;;;17.30;70.10;;;;;;4994905;28;95239;-67
2021/11/15 11:33:43;;;;;;;3.78;1.83;;;17.20;70.00;;;;;;5001674;28;96045;-67
2021/11/15 11:36:17;;;;;;;2.47;1.48;;;17.20;70.10;;;;;;5000982;28;96113;-73
2021/11/15 11:38:50;;;;;;;3.55;2.22;;;17.20;70.20;;;;;;5004848;28;95823;-67
2021/11/15 11:41:23;;;;;;;3.25;2.00;;;17.10;70.10;;;;;;4993747;28;95760;-66
2021/11/15 11:43:54;;;;;;;3.33;2.33;;;17.10;70.10;;;;;;4996420;28;97992;-66
2021/11/15 11:46:24;;;;;;;5.78;2.17;;;17.10;70.10;;;;;;4990441;28;97809;-66
2021/11/15 11:48:57;;;;;;;4.07;3.05;;;17.10;70.10;;;;;;5002218;28;95603;-66
2021/11/15 11:51:30;;;;;;;3.90;2.55;;;17.10;70.10;;;;;;4982988;28;95775;-71
2021/11/15 11:54:27;;;;;;;3.55;2.10;;;17.00;70.20;;;;;;4983955;28;96851;-73
2021/11/15 11:57:13;;;;;;;4.35;2.47;;;17.00;70.20;;;;;;4993320;28;95932;-66
2021/11/15 11:59:49;;;;;;;4.45;2.88;;;17.00;70.20;;;;;;4990260;28;95935;-66
2021/11/15 12:02:22;;;;;;;4.57;2.80;;;16.90;70.20;;;;;;4982015;28;95759;-66
2021/11/15 12:05:04;;;;;;;3.45;2.28;;;16.90;70.30;;;;;;4995867;28;96021;-66
2021/11/15 12:07:39;;;;;;;3.20;2.47;;;16.90;70.30;;;;;;5000411;28;95808;-67
2021/11/15 12:10:14;;;;;;;4.88;3.03;;;16.90;70.50;;;;;;4962932;28;95899;-66
2021/11/15 12:12:53;;;;;;;4.85;2.65;;;16.90;70.50;;;;;;4999327;28;96642;-66
2021/11/15 12:15:38;;;;;;;3.85;2.42;;;16.80;70.50;;;;;;4978295;28;96806;-72
2021/11/15 12:18:22;;;;;;;3.97;2.10;;;16.80;70.50;;;;;;5008933;28;95843;-66
2021/11/15 12:21:10;;;;;;;4.30;2.63;;;16.80;70.60;;;;;;4984327;28;95725;-66
2021/11/15 12:23:45;;;;;;;3.72;2.20;;;16.80;70.60;;;;;;5004335;28;95618;-66
2021/11/15 12:26:25;;;;;;;3.33;2.25;;;16.70;70.50;;;;;;4988472;28;96450;-67
2021/11/15 12:29:02;;;;;;;2.92;2.15;;;16.70;70.70;;;;;;5003322;28;95739;-66
2021/11/15 12:31:39;;;;;;;2.78;2.10;;;16.70;70.70;;;;;;4988416;28;96224;-66
2021/11/15 12:34:11;;;;;;;2.83;2.15;;;16.70;70.70;;;;;;4994240;28;95892;-66
2021/11/15 12:36:46;;;;;;;3.08;2.08;;;16.70;70.70;;;;;;4979125;28;96101;-66
2021/11/15 12:39:30;;;;;;;2.05;1.83;;;16.60;70.70;;;;;;5002415;28;95844;-72
2021/11/15 12:42:02;;;;;;;4.57;2.38;;;16.60;70.70;;;;;;4997149;28;95388;-66
2021/11/15 12:44:35;;;;;;;2.83;2.00;;;16.60;71.50;;;;;;4982786;28;96063;-66
2021/11/15 12:47:19;;;;;;;4.32;2.58;;;16.60;68.40;;;;;;5005912;28;96606;-72
2021/11/15 12:49:54;;;;;;;4.13;2.40;;;16.60;70.80;;;;;;4977414;28;95739;-66
2021/11/15 12:52:28;;;;;;;2.65;1.90;;;16.60;70.90;;;;;;5004218;28;95919;-66
2021/11/15 12:55:03;;;;;;;3.83;1.95;;;16.50;70.90;;;;;;5001848;28;97901;-66
2021/11/15 12:57:51;;;;;;;2.67;1.90;;;16.50;70.90;;;;;;4999099;28;97197;-67
2021/11/15 13:00:29;;;;;;;2.75;1.95;;;16.50;68.50;;;;;;5001212;28;96277;-66
2021/11/15 13:03:10;;;;;;;2.95;1.88;;;16.50;71.00;;;;;;4998367;28;95847;-71
2021/11/15 13:05:43;;;;;;;3.67;2.20;;;16.50;71.00;;;;;;5005502;28;95778;-66
2021/11/15 13:08:14;;;;;;;2.78;1.80;;;16.50;71.10;;;;;;4976135;28;99789;-67
2021/11/15 13:10:51;;;;;;;3.10;2.03;;;16.40;71.00;;;;;;4996768;28;95885;-72
2021/11/15 13:13:21;;;;;;;3.95;2.00;;;16.40;71.00;;;;;;4976325;28;95865;-72
2021/11/15 13:15:52;;;;;;;3.63;2.17;;;16.40;71.60;;;;;;4977076;28;95758;-67
2021/11/15 13:18:23;;;;;;;2.97;1.75;;;16.40;68.60;;;;;;4980946;28;96225;-66
2021/11/15 13:20:54;;;;;;;2.00;1.50;;;16.40;71.10;;;;;;4988708;28;95700;-72
2021/11/15 13:23:29;;;;;;;2.97;1.88;;;16.40;71.10;;;;;;4993920;28;95830;-67
2021/11/15 13:25:59;;;;;;;4.32;1.67;;;16.40;71.20;;;;;;5003358;28;95808;-73
2021/11/15 13:28:48;;;;;;;2.03;1.63;;;16.30;71.20;;;;;;5000757;28;96025;-66
2021/11/15 13:31:20;;;;;;;3.22;1.92;;;16.30;71.20;;;;;;5003059;28;95790;-65
2021/11/15 13:33:51;;;;;;;2.47;1.73;;;16.30;71.20;;;;;;4986165;28;95559;-73
2021/11/15 13:36:27;;;;;;;2.13;1.70;;;16.30;71.20;;;;;;4997134;28;95933;-66
2021/11/15 13:38:58;;;;;;;1.65;1.40;;;16.30;71.30;;;;;;5001354;28;96269;-73
2021/11/15 13:41:30;;;;;;;1.70;1.38;;;16.30;71.30;;;;;;4985305;28;97835;-66
2021/11/15 13:44:04;;;;;;;2.78;1.65;;;16.30;68.70;;;;;;4997135;28;95290;-72
2021/11/15 13:46:35;;;;;;;2.80;1.50;;;16.30;71.30;;;;;;4983935;28;95914;-66
2021/11/15 13:49:07;;;;;;;2.87;1.77;;;16.30;71.30;;;;;;5002202;28;96630;-66
2021/11/15 13:51:37;;;;;;;2.33;1.55;;;16.20;71.30;;;;;;4996559;28;95913;-66
2021/11/15 13:54:07;;;;;;;2.35;1.85;;;16.20;71.30;;;;;;4983072;28;95750;-67
2021/11/15 13:56:37;;;;;;;1.98;1.52;;;16.20;71.40;;;;;;5003583;28;95313;-66
2021/11/15 13:59:11;;;;;;;1.60;1.38;;;16.20;71.30;;;;;;5003241;28;96625;-66
2021/11/15 14:01:42;;;;;;;1.88;1.40;;;16.20;71.40;;;;;;4979621;28;96448;-66
2021/11/15 14:04:13;;;;;;;1.98;1.50;;;16.20;71.40;;;;;;4983902;28;95828;-66
2021/11/15 14:06:45;;;;;;;1.80;1.40;;;16.20;71.40;;;;;;4983050;28;95632;-66
2021/11/15 14:09:16;;;;;;;2.45;1.80;;;16.20;71.40;;;;;;4998510;28;96109;-66
2021/11/15 14:11:47;;;;;;;3.13;1.48;;;16.10;71.40;;;;;;4982543;28;96432;-67
2021/11/15 14:14:18;;;;;;;2.53;1.80;;;16.10;71.40;;;;;;4982202;28;98280;-66
2021/11/15 14:16:49;;;;;;;2.00;1.38;;;16.10;71.40;;;;;;4994671;28;95761;-66
2021/11/15 14:19:22;;;;;;;2.97;1.50;;;16.10;71.40;;;;;;5004860;28;96650;-67
2021/11/15 14:21:58;;;;;;;1.60;1.42;;;16.10;71.40;;;;;;4980724;28;97789;-66
2021/11/15 14:24:28;;;;;;;1.52;1.25;;;16.10;71.50;;;;;;4984671;28;95865;-72
2021/11/15 14:26:58;;;;;;;2.03;1.60;;;16.10;71.50;;;;;;5001118;28;95616;-66
2021/11/15 14:29:30;;;;;;;1.67;1.58;;;16.10;71.50;;;;;;4993285;28;95879;-66
2021/11/15 14:32:02;;;;;;;2.63;1.63;;;16.00;71.50;;;;;;4984738;28;95964;-66
2021/11/15 14:34:35;;;;;;;2.47;1.73;;;16.00;71.50;;;;;;4996264;28;95755;-66
2021/11/15 14:37:06;;;;;;;2.72;1.50;;;16.00;71.50;;;;;;4999422;28;96224;-65
2021/11/15 14:39:37;;;;;;;2.53;1.45;;;16.00;69.00;;;;;;4979599;28;95880;-67
2021/11/15 14:42:10;;;;;;;3.10;1.83;;;16.00;72.20;;;;;;4980870;28;95340;-66
2021/11/15 14:44:45;;;;;;;3.58;1.58;;;16.00;71.60;;;;;;5002979;28;95364;-66
2021/11/15 14:47:18;;;;;;;1.42;1.33;;;16.00;71.60;;;;;;4992477;28;95733;-66
2021/11/15 14:49:51;;;;;;;3.38;1.50;;;16.00;71.60;;;;;;5004915;28;97090;-66
2021/11/15 14:52:23;;;;;;;1.65;1.55;;;15.90;71.50;;;;;;4961753;28;95650;-66
2021/11/15 14:54:53;;;;;;;2.08;1.55;;;16.00;71.60;;;;;;4991201;28;95944;-72
2021/11/15 14:57:23;;;;;;;2.15;1.40;;;16.00;71.60;;;;;;4989225;28;96367;-67
2021/11/15 14:59:53;;;;;;;4.10;1.55;;;15.90;71.60;;;;;;4992852;28;96531;-67
2021/11/15 15:02:23;;;;;;;1.30;1.10;;;15.90;71.60;;;;;;4980189;28;95696;-67
2021/11/15 15:04:54;;;;;;;1.98;1.42;;;15.90;71.60;;;;;;4982095;28;95631;-67
2021/11/15 15:07:26;;;;;;;;;;;16.00;72.00;;;;;;5001180;28;95558;-73
2021/11/15 15:09:59;;;;;;;4.20;1.60;;;16.00;72.00;;;;;;5009327;28;96241;-72
2021/11/15 15:12:29;;;;;;;2.58;1.73;;;16.00;72.00;;;;;;4999920;28;95901;-67
2021/11/15 15:15:02;;;;;;;2.78;1.40;;;16.00;71.90;;;;;;5000430;28;95364;-66
2021/11/15 15:17:38;;;;;;;3.55;1.88;;;16.10;71.90;;;;;;5012344;28;95957;-67
2021/11/15 15:20:10;;;;;;;2.58;1.50;;;16.10;71.90;;;;;;5006080;28;96098;-72
2021/11/15 15:22:42;;;;;;;2.60;1.73;;;16.10;71.80;;;;;;4980185;28;95426;-66
2021/11/15 15:25:13;;;;;;;2.50;1.52;;;16.10;71.80;;;;;;5004147;28;95335;-72
2021/11/15 15:27:43;;;;;;;3.85;1.73;;;16.10;71.70;;;;;;4961619;28;95263;-66
2021/11/15 15:30:20;;;;;;;4.40;2.25;;;16.10;71.70;;;;;;4998743;28;96161;-66
2021/11/15 15:32:53;;;;;;;2.75;1.65;;;16.10;71.70;;;;;;4963734;28;96987;-72
2021/11/15 15:35:24;;;;;;;2.08;1.33;;;16.10;71.60;;;;;;4996658;28;96751;-66
2021/11/15 15:37:55;;;;;;;;;;;16.10;71.60;;;;;;4990699;28;95757;-66
2021/11/15 15:40:31;;;;;;;2.67;1.70;;;16.10;71.60;;;;;;4998236;28;96015;-72
2021/11/15 15:43:04;;;;;;;1.40;1.10;;;16.10;71.60;;;;;;5005379;28;95472;-66
2021/11/15 15:45:33;;;;;;;;;;;16.10;71.50;;;;;;4990902;28;97963;-66
2021/11/15 15:48:05;;;;;;;4.35;1.85;;;16.10;71.50;;;;;;4980697;28;95797;-66
2021/11/15 15:50:39;;;;;;;2.40;1.20;;;16.10;71.60;;;;;;4991556;28;96542;-72
2021/11/15 15:53:10;;;;;;;3.10;1.17;;;16.10;71.50;;;;;;4977707;28;97599;-72
2021/11/15 15:55:40;;;;;;;2.45;1.38;;;16.10;71.40;;;;;;4991174;28;98561;-66
2021/11/15 15:58:10;;;;;;;1.70;1.27;;;16.10;71.40;;;;;;4974892;28;95785;-72
2021/11/15 16:00:41;;;;;;;2.38;1.80;;;16.00;71.20;;;;;;4985982;28;96555;-66
2021/11/15 16:03:11;;;;;;;1.60;1.30;;;16.00;71.90;;;;;;4994847;28;95723;-66
2021/11/15 16:05:58;;;;;;;2.38;1.58;;;16.00;71.20;;;;;;4985511;28;95738;-66
2021/11/15 16:08:57;;;;;;;1.95;1.42;;;16.00;71.20;;;;;;4998978;28;95625;-72
2021/11/15 16:11:52;;;;;;;2.28;1.17;;;16.00;71.20;;;;;;4990399;28;96116;-66
2021/11/15 16:17:14;;;;;;;1.38;1.15;;;16.00;71.10;;;;;;4998912;28;95788;-66
2021/11/15 16:19:46;;;;;;;1.33;1.17;;;16.00;71.10;;;;;;4989706;28;95815;-66
2021/11/15 16:22:17;;;;;;;2.50;1.27;;;16.00;71.00;;;;;;4991092;28;96486;-66
2021/11/15 16:24:47;;;;;;;2.20;1.40;;;16.00;71.00;;;;;;4992761;28;95767;-66
2021/11/15 16:27:19;;;;;;;1.73;1.40;;;16.00;71.00;;;;;;4988846;28;95665;-66
2021/11/15 16:29:51;;;;;;;3.88;1.65;;;15.90;71.00;;;;;;4992907;28;95851;-72
2021/11/15 16:32:25;;;;;;;1.25;1.15;;;16.00;71.00;;;;;;4987458;28;97855;-67
2021/11/15 16:34:56;;;;;;;1.80;1.17;;;15.90;71.00;;;;;;4983591;28;96009;-73
2021/11/15 16:37:26;;;;;;;2.45;1.52;;;15.90;71.00;;;;;;4998748;28;95693;-66
2021/11/15 16:39:58;;;;;;;3.25;1.52;;;15.90;70.90;;;;;;4995135;28;95304;-67
2021/11/15 16:42:30;;;;;;;1.98;1.27;;;15.90;71.00;;;;;;5002314;28;96697;-66
2021/11/15 16:45:02;;;;;;;2.20;1.48;;;15.90;71.00;;;;;;4992362;28;95945;-67
2021/11/15 16:47:32;;;;;;;1.33;0.98;;;15.90;70.90;;;;;;4997050;28;95697;-66
2021/11/15 16:50:03;;;;;;;2.90;1.58;;;15.80;71.00;;;;;;4983639;28;95804;-66
2021/11/15 16:52:35;;;;;;;2.60;1.73;;;15.80;71.00;;;;;;4983449;28;96032;-66
2021/11/15 16:55:05;;;;;;;3.15;2.28;;;15.80;71.00;;;;;;4978778;28;97246;-66
2021/11/15 16:57:36;;;;;;;2.05;1.35;;;15.80;71.00;;;;;;4993477;28;95799;-66
2021/11/15 17:00:11;;;;;;;2.03;1.52;;;15.80;71.00;;;;;;5002762;28;95841;-66
2021/11/15 17:03:03;;;;;;;2.45;1.80;;;15.80;71.00;;;;;;5002442;28;96773;-66
2021/11/15 17:05:38;;;;;;;2.10;1.20;;;15.80;71.10;;;;;;4990526;28;97389;-66
2021/11/15 17:08:13;;;;;;;2.67;1.45;;;15.70;71.00;;;;;;4999165;28;95699;-67
2021/11/15 17:10:47;;;;;;;2.58;1.30;;;15.80;71.10;;;;;;5007373;28;95792;-66
2021/11/15 17:13:21;;;;;;;2.75;1.67;;;15.70;71.10;;;;;;4992774;28;96046;-66
2021/11/15 17:15:53;;;;;;;2.08;1.45;;;15.70;68.80;;;;;;5001496;28;96264;-66